Time;durP1;ratioP1;P1;durP2;ratioP2;P2;SDS_P1;SDS_P2;PMS_P1;PMS_P2;Temp;Humidity;BMP_temperature;BMP_pressure;BME280_temperature;BME280_humidity;BME280_pressure;Samples;Min_cycle;Max_cycle;Signal;HPM_P1;HPM_P2
2023/01/31 00:01:15;;;;;;;20.63;7.73;;;;;;;-141.97;95.61;47851.59;5104290;28;20441;-86
2023/01/31 00:03:42;;;;;;;20.07;9.53;;;;;;;-141.97;96.00;47859.28;5075547;28;20481;-86
2023/01/31 00:06:35;;;;;;;21.20;7.63;;;;;;;-141.97;95.48;47888.13;5061201;28;20405;-86
2023/01/31 00:09:03;;;;;;;21.97;9.37;;;;;;;-141.97;94.97;47838.16;5017129;28;20422;-85
2023/01/31 00:11:29;;;;;;;26.30;9.80;;;;;;;-141.97;95.36;47817.00;4999092;28;20425;-85
2023/01/31 00:13:56;;;;;;;21.63;8.70;;;;;;;-141.97;95.41;47845.84;5016220;28;20525;-85
2023/01/31 00:16:22;;;;;;;25.17;10.37;;;;;;;-141.97;95.20;47811.25;5001555;28;20413;-84
2023/01/31 00:18:48;;;;;;;24.70;9.10;;;;;;;-141.97;94.47;47817.00;5024195;28;20406;-85
2023/01/31 00:21:21;;;;;;;23.17;9.87;;;;;;;-141.97;95.20;47822.78;5015954;28;20560;-85
2023/01/31 00:23:48;;;;;;;26.70;9.67;;;;;;;-141.97;94.55;47857.38;5015147;28;20174;-86
2023/01/31 00:26:14;;;;;;;16.47;6.73;;;;;;;-141.97;93.97;47765.09;4999216;28;21004;-86
2023/01/31 00:28:41;;;;;;;20.23;8.47;;;;;;;-141.97;94.24;47822.78;5015480;28;20417;-85
2023/01/31 00:31:07;;;;;;;16.17;6.97;;;;;;;-141.97;93.83;47792.03;5015482;28;20485;-85
2023/01/31 00:33:34;;;;;;;18.70;8.20;;;;;;;-141.97;93.71;47782.41;5015019;28;20429;-85
2023/01/31 00:36:06;;;;;;;20.97;8.87;;;;;;;-141.97;93.71;47745.88;4998846;28;20736;-85
2023/01/31 00:38:32;;;;;;;23.73;9.93;;;;;;;-141.97;93.58;47847.75;4998710;28;21017;-85
2023/01/31 00:40:57;;;;;;;18.77;8.83;;;;;;;-141.97;94.77;47842.00;5014182;28;20464;-85
2023/01/31 00:43:22;;;;;;;22.17;9.30;;;;;;;-141.97;95.24;47911.19;5021034;28;20620;-84
2023/01/31 00:45:48;;;;;;;20.60;8.83;;;;;;;-141.97;95.30;47907.34;5033482;28;20188;-84
2023/01/31 00:48:14;;;;;;;18.53;6.83;;;;;;;-141.97;96.26;47824.69;5062132;28;20165;-84
2023/01/31 00:50:39;;;;;;;20.20;8.50;;;;;;;-141.97;96.73;47803.56;5048845;28;20181;-84
2023/01/31 00:53:05;;;;;;;15.53;7.27;;;;;;;-141.97;95.68;47876.59;5076765;28;20234;-85
2023/01/31 00:55:31;;;;;;;16.13;6.10;;;;;;;-141.97;94.49;47834.31;5075847;28;20257;-85
2023/01/31 00:57:56;;;;;;;15.00;6.70;;;;;;;-141.97;94.61;47840.06;5083846;28;20151;-86
2023/01/31 01:00:22;;;;;;;14.80;5.87;;;;;;;-141.97;94.19;47770.88;5061333;28;20177;-85
2023/01/31 01:02:47;;;;;;;14.03;5.27;;;;;;;-141.97;94.06;47830.47;5077774;28;20161;-85
2023/01/31 01:05:13;;;;;;;15.13;6.70;;;;;;;-141.97;93.43;47828.53;5095776;28;20163;-85
2023/01/31 01:07:38;;;;;;;11.23;5.77;;;;;;;-141.97;93.91;47786.25;5094318;28;20588;-85
2023/01/31 01:10:05;;;;;;;16.80;5.83;;;;;;;-141.97;93.97;47843.91;5076742;28;20172;-86
2023/01/31 01:12:31;;;;;;;15.03;6.73;;;;;;;-141.97;93.95;47805.47;5076616;28;20348;-85
2023/01/31 01:14:57;;;;;;;15.93;6.47;;;;;;;-141.97;94.35;47818.94;5076443;28;20799;-86
2023/01/31 01:17:22;;;;;;;13.50;5.77;;;;;;;-141.97;94.21;47834.31;5094684;28;20216;-86
2023/01/31 01:19:48;;;;;;;18.47;7.13;;;;;;;-141.97;93.99;47930.41;5095130;28;20164;-85
2023/01/31 01:22:15;;;;;;;15.17;6.90;;;;;;;-141.97;93.72;47801.63;5095852;28;20203;-85
2023/01/31 01:24:44;;;;;;;10.63;5.47;;;;;;;-141.97;93.76;47966.94;5076854;28;20169;-85
2023/01/31 01:27:10;;;;;;;16.73;6.47;;;;;;;-141.97;94.26;47799.72;5095663;28;20425;-86
2023/01/31 01:29:35;;;;;;;13.13;5.23;;;;;;;-141.97;94.72;47880.44;5076812;28;20953;-85
2023/01/31 01:32:01;;;;;;;18.10;6.60;;;;;;;-141.97;94.66;47895.81;5076483;28;20255;-85
2023/01/31 01:34:27;;;;;;;15.57;7.37;;;;;;;-141.97;95.35;47865.06;5076661;28;20170;-85
2023/01/31 01:36:52;;;;;;;16.40;6.57;;;;;;;-141.97;95.87;47870.81;5076468;28;20174;-86
2023/01/31 01:39:18;;;;;;;20.80;8.03;;;;;;;-141.97;97.20;47855.44;5094562;28;20156;-85
2023/01/31 01:41:44;;;;;;;19.63;8.77;;;;;;;-141.97;98.10;47834.31;5098046;28;20187;-87
2023/01/31 01:44:48;;;;;;;15.77;7.30;;;;;;;-141.97;98.39;47861.22;5103826;28;20604;-85
2023/01/31 01:47:22;;;;;;;17.07;7.40;;;;;;;-141.97;98.54;47811.25;5099698;28;20397;-84
2023/01/31 01:49:57;;;;;;;15.93;6.87;;;;;;;-141.97;98.94;47828.53;5065579;28;20528;-86
2023/01/31 01:52:25;;;;;;;16.67;5.90;;;;;;;-141.97;99.33;47795.88;5056394;28;20453;-86
2023/01/31 01:55:00;;;;;;;12.87;5.63;;;;;;;-141.97;99.82;47795.88;5073924;28;20419;-85
2023/01/31 01:57:35;;;;;;;13.10;5.27;;;;;;;-141.97;99.51;47851.59;5056954;28;20421;-85
2023/01/31 02:00:15;;;;;;;11.90;5.00;;;;;;;-141.97;99.14;47890.06;5073802;28;20417;-85
2023/01/31 02:02:43;;;;;;;18.03;7.33;;;;;;;-141.97;99.29;47826.63;5074072;28;20446;-84
2023/01/31 02:05:11;;;;;;;14.63;5.00;;;;;;;-141.97;99.15;47938.09;5055734;28;20537;-85
2023/01/31 02:07:36;;;;;;;14.33;6.17;;;;;;;-141.97;99.58;47880.44;5073839;28;20413;-86
2023/01/31 02:10:14;;;;;;;10.63;4.43;;;;;;;-141.97;99.88;47815.09;5075025;28;20605;-85
2023/01/31 02:12:40;;;;;;;8.40;3.53;;;;;;;-141.97;99.93;47826.63;5075507;28;20243;-85
2023/01/31 02:15:07;;;;;;;7.50;3.17;;;;;;;-141.97;99.35;47926.56;5092517;28;20437;-86
2023/01/31 02:17:32;;;;;;;8.27;4.13;;;;;;;-141.97;98.68;47861.22;5095954;28;20596;-85
2023/01/31 02:20:14;;;;;;;7.70;3.57;;;;;;;-141.97;98.51;47818.94;5096964;28;20448;-85
2023/01/31 02:22:58;;;;;;;9.83;4.43;;;;;;;-141.97;97.84;47849.69;5095570;28;20212;-86
2023/01/31 02:26:11;;;;;;;10.03;3.77;;;;;;;-141.97;97.91;47872.75;5091840;28;20418;-85
2023/01/31 02:28:58;;;;;;;6.53;3.03;;;;;;;-141.97;98.14;47853.53;5034084;28;20509;-85
2023/01/31 02:31:38;;;;;;;8.17;3.27;;;;;;;-141.97;98.14;47857.38;5015986;28;20417;-86
2023/01/31 02:34:11;;;;;;;9.03;3.53;;;;;;;-141.97;97.88;47865.06;5041043;28;20436;-86
2023/01/31 02:37:14;;;;;;;7.03;3.27;;;;;;;-141.97;97.57;47857.38;5055555;28;20409;-85
2023/01/31 02:40:11;;;;;;;7.37;3.53;;;;;;;-141.97;96.89;47842.00;5032040;28;20477;-85
2023/01/31 02:43:04;;;;;;;7.80;3.33;;;;;;;-141.97;96.72;47805.47;4944316;29;20484;-85
2023/01/31 02:45:42;;;;;;;7.20;3.63;;;;;;;-141.97;96.65;47842.00;4935163;29;20752;-85
2023/01/31 02:48:15;;;;;;;6.80;2.77;;;;;;;-141.97;95.36;47888.13;4918775;29;20428;-86
2023/01/31 02:51:03;;;;;;;6.93;3.07;;;;;;;-141.97;94.86;47828.53;4918387;29;20535;-86
2023/01/31 02:53:43;;;;;;;6.80;3.10;;;;;;;-141.97;93.92;47855.44;4934449;29;20432;-86
2023/01/31 02:56:13;;;;;;;6.57;2.57;;;;;;;-141.97;94.23;47832.38;4933746;29;20448;-86
2023/01/31 02:58:43;;;;;;;5.17;2.73;;;;;;;-141.97;94.15;47838.16;4933529;29;20433;-85
2023/01/31 03:01:16;;;;;;;7.37;2.90;;;;;;;-141.97;94.65;47916.97;4933937;29;20476;-84
2023/01/31 03:03:42;;;;;;;5.37;2.60;;;;;;;-141.97;93.95;47834.31;4931875;29;20571;-85
2023/01/31 03:06:11;;;;;;;5.73;2.90;;;;;;;-141.97;94.22;47859.28;4964007;28;20955;-85
2023/01/31 03:08:43;;;;;;;4.90;2.07;;;;;;;-141.97;93.69;47838.16;4962592;28;20415;-85
2023/01/31 03:11:09;;;;;;;5.97;2.77;;;;;;;-141.97;93.89;47851.59;4972013;28;20479;-85
2023/01/31 03:13:43;;;;;;;4.40;2.40;;;;;;;-141.97;92.84;47865.06;4954211;28;20904;-85
2023/01/31 03:19:15;;;;;;;5.50;2.40;;;;;;;-141.97;91.58;47847.75;5033000;28;20453;-85
2023/01/31 03:22:03;;;;;;;5.97;3.00;;;;;;;-141.97;91.40;47793.94;5053085;28;20523;-85
2023/01/31 03:24:30;;;;;;;4.80;2.70;;;;;;;-141.97;90.45;47811.25;5070891;28;20398;-86
2023/01/31 03:26:59;;;;;;;8.13;3.67;;;;;;;-141.97;90.81;47795.88;5053194;28;20557;-85
2023/01/31 03:29:27;;;;;;;9.50;3.83;;;;;;;-141.97;90.65;47830.47;5071377;28;20403;-85
2023/01/31 03:31:57;;;;;;;7.77;2.40;;;;;;;-141.97;90.71;47834.31;5073830;28;20410;-86
2023/01/31 03:34:24;;;;;;;8.07;3.40;;;;;;;-141.97;91.69;47792.03;5057018;28;20498;-85
2023/01/31 03:36:58;;;;;;;8.20;3.67;;;;;;;-141.97;91.79;47792.03;5056880;28;20415;-85
2023/01/31 03:39:36;;;;;;;6.93;3.40;;;;;;;-141.97;91.98;47820.84;5074872;28;20457;-85
2023/01/31 03:42:07;;;;;;;7.63;3.73;;;;;;;-141.97;92.30;47863.13;5073310;28;20489;-85
2023/01/31 03:44:37;;;;;;;8.53;3.87;;;;;;;-141.97;91.95;47834.31;5056974;28;20421;-85
2023/01/31 03:47:10;;;;;;;7.30;3.13;;;;;;;-141.97;91.51;47851.59;5074823;28;20922;-87
2023/01/31 03:49:38;;;;;;;8.93;3.57;;;;;;;-141.97;91.91;47853.53;5074841;28;20431;-85
2023/01/31 03:52:07;;;;;;;10.37;4.50;;;;;;;-141.97;91.55;47815.09;5074757;28;20407;-85
2023/01/31 03:54:39;;;;;;;10.03;3.77;;;;;;;-141.97;90.97;47842.00;5074837;28;20410;-85
2023/01/31 03:57:21;;;;;;;10.30;4.63;;;;;;;-141.97;90.07;47834.31;5074412;28;20414;-85
2023/01/31 03:59:54;;;;;;;13.77;5.00;;;;;;;-141.97;89.64;47876.59;5074542;28;20406;-85
2023/01/31 04:02:24;;;;;;;9.33;4.17;;;;;;;-141.97;89.77;47832.38;5074640;28;20473;-84
2023/01/31 04:05:09;;;;;;;8.70;4.17;;;;;;;-141.97;89.02;47770.88;5072311;28;20506;-84
2023/01/31 04:07:36;;;;;;;9.20;4.60;;;;;;;-141.97;88.11;47838.16;5074125;28;20418;-85
2023/01/31 04:10:05;;;;;;;11.17;4.57;;;;;;;-141.97;87.54;47936.19;5073081;28;20419;-85
2023/01/31 04:12:35;;;;;;;12.47;5.23;;;;;;;-141.97;87.95;47824.69;5075457;28;20499;-86
2023/01/31 04:15:00;;;;;;;8.17;3.70;;;;;;;-141.97;87.81;47832.38;5076059;28;20418;-86
2023/01/31 04:17:25;;;;;;;10.00;4.27;;;;;;;-141.97;87.90;47840.06;5074591;28;20411;-86
2023/01/31 04:19:51;;;;;;;10.80;4.47;;;;;;;-141.97;88.51;47780.47;5073089;28;20180;-84
2023/01/31 04:22:16;;;;;;;12.90;5.77;;;;;;;-141.97;89.30;47776.63;5074302;28;20222;-84
2023/01/31 04:24:42;;;;;;;16.70;7.07;;;;;;;-141.97;89.26;47728.59;5072661;28;20230;-85
2023/01/31 04:27:07;;;;;;;14.33;5.23;;;;;;;-141.97;89.15;47749.72;5087170;28;20618;-85
2023/01/31 04:29:32;;;;;;;12.47;5.97;;;;;;;-141.97;88.83;47792.03;5076319;28;20191;-85
2023/01/31 04:31:58;;;;;;;14.57;6.07;;;;;;;-141.97;89.42;47895.81;5089712;28;20247;-85
2023/01/31 04:34:23;;;;;;;19.57;7.37;;;;;;;-141.97;90.15;47863.13;5077172;28;20172;-85
2023/01/31 04:36:48;;;;;;;15.30;6.27;;;;;;;-141.97;90.24;47880.44;5087570;28;20160;-86
2023/01/31 04:39:15;;;;;;;17.93;7.60;;;;;;;-141.97;90.81;47761.25;5083391;28;20165;-86
2023/01/31 04:41:40;;;;;;;13.43;5.93;;;;;;;-141.97;91.43;47763.19;5093520;28;20201;-87
2023/01/31 04:44:06;;;;;;;17.53;7.23;;;;;;;-141.97;91.35;47826.63;5080251;28;20863;-88
2023/01/31 04:46:31;;;;;;;18.30;7.33;;;;;;;-141.97;92.38;47853.53;5078825;28;20164;-86
2023/01/31 04:48:56;;;;;;;20.47;8.63;;;;;;;-141.97;92.52;47795.88;5074303;28;20256;-86
2023/01/31 04:51:22;;;;;;;20.53;9.00;;;;;;;-141.97;92.82;47699.75;5075330;28;20546;-87
2023/01/31 04:53:47;;;;;;;15.07;6.67;;;;;;;-141.97;93.43;47713.22;5074536;28;20192;-87
2023/01/31 04:56:13;;;;;;;17.17;6.10;;;;;;;-141.97;93.43;47838.16;5074226;28;20640;-87
2023/01/31 04:58:40;;;;;;;16.37;6.97;;;;;;;-141.97;93.36;47807.41;5073625;28;20165;-86
2023/01/31 05:01:06;;;;;;;13.97;6.40;;;;;;;-141.97;93.83;47747.81;5072734;28;20196;-85
2023/01/31 05:03:31;;;;;;;15.07;6.10;;;;;;;-141.97;93.78;47849.69;5073446;28;20466;-86
2023/01/31 05:05:56;;;;;;;15.80;6.80;;;;;;;-141.97;93.75;47790.09;5073523;28;20648;-87
2023/01/31 05:08:22;;;;;;;14.23;6.50;;;;;;;-141.97;93.01;47863.13;5055661;28;20192;-86
2023/01/31 05:10:47;;;;;;;13.77;5.90;;;;;;;-141.97;93.34;47755.50;5073190;28;20161;-85
2023/01/31 05:13:13;;;;;;;14.60;5.63;;;;;;;-141.97;93.48;47834.31;5072094;28;20251;-87
2023/01/31 05:15:39;;;;;;;12.10;5.63;;;;;;;-141.97;94.11;47782.41;5056259;28;20172;-87
2023/01/31 05:18:04;;;;;;;16.67;6.97;;;;;;;-141.97;94.88;47797.78;5075296;28;20201;-84
2023/01/31 05:20:35;;;;;;;13.63;6.17;;;;;;;-141.97;95.45;47815.09;5093403;28;20160;-86
2023/01/31 05:23:01;;;;;;;15.60;6.40;;;;;;;-141.97;95.93;47761.25;5093489;28;20171;-85
2023/01/31 05:25:26;;;;;;;16.33;6.47;;;;;;;-141.97;96.03;47792.03;5075058;28;20442;-87
2023/01/31 05:27:52;;;;;;;19.10;7.40;;;;;;;-141.97;96.38;47718.97;5074911;28;20176;-87
2023/01/31 05:30:18;;;;;;;14.70;6.50;;;;;;;-141.97;96.63;47851.59;5074667;28;20228;-86
2023/01/31 05:32:44;;;;;;;15.97;7.43;;;;;;;-141.97;96.38;47891.97;5094900;28;20400;-84
2023/01/31 05:35:11;;;;;;;15.73;6.73;;;;;;;-141.97;96.58;47803.56;5100583;28;20742;-85
2023/01/31 05:37:37;;;;;;;19.87;7.97;;;;;;;-141.97;96.80;47895.81;5076242;28;20434;-85
2023/01/31 05:40:02;;;;;;;18.93;7.93;;;;;;;-141.97;96.92;47853.53;5095793;28;20503;-85
2023/01/31 05:42:28;;;;;;;17.43;6.30;;;;;;;-141.97;96.03;47799.72;5104117;28;20203;-86
2023/01/31 05:44:53;;;;;;;14.63;6.33;;;;;;;-141.97;95.56;47870.81;5086609;28;20199;-85
2023/01/31 05:47:18;;;;;;;15.80;6.30;;;;;;;-141.97;95.58;47834.31;5103843;28;20527;-85
2023/01/31 05:49:44;;;;;;;16.60;6.90;;;;;;;-141.97;95.21;47768.94;5095741;28;20257;-86
2023/01/31 05:52:09;;;;;;;18.30;7.03;;;;;;;-141.97;95.22;47888.13;5093870;28;20246;-85
2023/01/31 05:54:35;;;;;;;13.43;6.73;;;;;;;-141.97;95.84;47784.34;5092855;28;20165;-85
2023/01/31 05:57:00;;;;;;;14.20;6.93;;;;;;;-141.97;96.52;47863.13;5074656;28;20164;-86
2023/01/31 05:59:25;;;;;;;15.23;6.77;;;;;;;-141.97;97.17;47818.94;5074768;28;20168;-86
2023/01/31 06:01:51;;;;;;;13.03;5.43;;;;;;;-141.97;97.90;47811.25;5068390;28;20743;-85
2023/01/31 06:04:16;;;;;;;15.87;6.40;;;;;;;-141.97;98.38;47838.16;5093708;28;20223;-85
2023/01/31 06:06:43;;;;;;;16.10;6.57;;;;;;;-141.97;98.60;47807.41;5074652;28;20635;-86
2023/01/31 06:09:09;;;;;;;17.37;6.20;;;;;;;-141.97;98.11;47767.03;5073950;28;20257;-85
2023/01/31 06:11:34;;;;;;;21.93;9.63;;;;;;;-141.97;98.00;47807.41;5091337;28;20443;-86
2023/01/31 06:14:00;;;;;;;22.00;10.33;;;;;;;-141.97;97.85;47736.28;5083631;28;20644;-86
2023/01/31 06:16:25;;;;;;;13.40;6.03;;;;;;;-141.97;98.25;47792.03;5069613;28;20181;-85
2023/01/31 06:18:50;;;;;;;14.77;6.43;;;;;;;-141.97;98.67;47749.72;5058298;28;20607;-85
2023/01/31 06:21:16;;;;;;;18.60;6.60;;;;;;;-141.97;99.09;47847.75;5092037;28;20191;-85
2023/01/31 06:23:45;;;;;;;17.50;6.80;;;;;;;-141.97;99.93;47878.53;5091710;28;20160;-86
2023/01/31 06:26:11;;;;;;;14.80;5.73;;;;;;;-141.97;99.48;47818.94;5088565;28;20749;-87
2023/01/31 06:28:36;;;;;;;19.30;6.90;;;;;;;-141.97;98.92;47805.47;5070979;28;20407;-86
2023/01/31 06:31:09;;;;;;;15.80;6.67;;;;;;;-141.97;98.01;47801.63;5075299;28;20420;-86
2023/01/31 06:33:35;;;;;;;14.27;5.90;;;;;;;-141.97;97.57;47740.13;5106058;28;20174;-87
2023/01/31 06:36:00;;;;;;;18.63;7.47;;;;;;;-141.97;97.02;47790.09;5074131;28;20410;-87
2023/01/31 06:38:27;;;;;;;18.60;7.57;;;;;;;-141.97;96.84;47861.22;5092149;28;20224;-86
2023/01/31 06:40:53;;;;;;;18.63;7.87;;;;;;;-141.97;96.37;47828.53;5073877;28;20695;-86
2023/01/31 06:43:18;;;;;;;20.10;9.10;;;;;;;-141.97;95.77;47845.84;5073869;28;20434;-86
2023/01/31 06:45:44;;;;;;;35.17;13.77;;;;;;;-141.97;95.62;47845.84;5073467;28;20664;-86
2023/01/31 06:48:12;;;;;;;16.30;7.20;;;;;;;-141.97;95.61;47734.34;5092040;28;20217;-87
2023/01/31 06:50:37;;;;;;;15.37;6.83;;;;;;;-141.97;95.44;47803.56;5091925;28;20168;-85
2023/01/31 06:53:03;;;;;;;18.13;8.00;;;;;;;-141.97;95.51;47884.28;5073684;28;20409;-85
2023/01/31 06:55:28;;;;;;;16.33;5.80;;;;;;;-141.97;96.16;47893.91;5073325;28;20644;-86
2023/01/31 06:57:57;;;;;;;19.60;8.07;;;;;;;-141.97;96.14;47830.47;5073716;28;20180;-86
2023/01/31 07:00:24;;;;;;;14.40;6.30;;;;;;;-141.97;95.91;47851.59;5074096;28;20172;-88
2023/01/31 07:02:50;;;;;;;15.67;6.23;;;;;;;-141.97;95.95;47811.25;5091604;28;20556;-86
2023/01/31 07:05:17;;;;;;;24.80;8.63;;;;;;;-141.97;96.03;47830.47;5072136;28;20432;-86
2023/01/31 07:07:42;;;;;;;21.90;8.00;;;;;;;-141.97;96.43;47776.63;5069689;28;20421;-86
2023/01/31 07:10:09;;;;;;;17.57;7.67;;;;;;;-141.97;97.21;47776.63;5071603;28;20494;-86
2023/01/31 07:12:35;;;;;;;19.57;7.50;;;;;;;-141.97;96.53;47820.84;5071110;28;20165;-87
2023/01/31 07:15:00;;;;;;;32.57;10.07;;;;;;;-141.97;97.21;47795.88;5071418;28;20463;-88
2023/01/31 07:17:26;;;;;;;14.20;7.27;;;;;;;-141.97;97.02;47851.59;5070371;28;20175;-86
2023/01/31 07:19:51;;;;;;;13.23;6.80;;;;;;;-141.97;96.89;47838.16;5071096;28;20172;-86
2023/01/31 07:22:17;;;;;;;13.07;6.13;;;;;;;-141.97;97.53;47859.28;5072093;28;20188;-85
2023/01/31 07:24:42;;;;;;;12.83;6.73;;;;;;;-141.97;97.10;47849.69;5069231;28;20566;-86
2023/01/31 07:27:08;;;;;;;13.30;5.73;;;;;;;-141.97;98.17;47855.44;5071334;28;20168;-85
2023/01/31 07:29:33;;;;;;;15.47;6.60;;;;;;;-141.97;97.91;47876.59;5070339;28;20168;-86
2023/01/31 07:31:59;;;;;;;12.37;5.57;;;;;;;-141.97;97.36;47830.47;5070623;28;20545;-85
2023/01/31 07:34:24;;;;;;;13.73;5.77;;;;;;;-141.97;97.27;47811.25;5069277;28;20621;-85
2023/01/31 07:36:50;;;;;;;11.73;6.07;;;;;;;-141.97;97.06;47732.44;5071626;28;20176;-89
2023/01/31 07:39:15;;;;;;;11.83;6.20;;;;;;;-141.97;97.00;47847.75;5070391;28;20184;-90
2023/01/31 07:41:41;;;;;;;16.23;6.77;;;;;;;-141.97;96.95;47826.63;5069185;28;20195;-87
2023/01/31 07:44:09;;;;;;;12.97;5.93;;;;;;;-141.97;96.43;47826.63;5070476;28;20172;-86
2023/01/31 07:46:35;;;;;;;9.43;5.33;;;;;;;-141.97;96.23;47788.19;5070011;28;20173;-87
2023/01/31 07:49:01;;;;;;;11.63;6.10;;;;;;;-141.97;95.90;47782.41;5072054;28;20433;-90
2023/01/31 07:51:26;;;;;;;9.83;4.60;;;;;;;-141.97;96.07;47788.19;5073927;28;20605;-88
2023/01/31 07:53:51;;;;;;;8.37;4.77;;;;;;;-141.97;95.63;47757.41;5072575;28;20172;-88
2023/01/31 07:56:19;;;;;;;9.90;4.97;;;;;;;-141.97;94.80;47820.84;5072268;28;20505;-88
2023/01/31 07:58:46;;;;;;;14.13;6.83;;;;;;;-141.97;94.56;47834.31;5073076;28;20160;-87
2023/01/31 08:04:10;;;;;;;12.43;5.60;;;;;;;-141.97;94.26;47826.63;5093168;28;20557;-87
2023/01/31 08:06:37;;;;;;;12.63;5.70;;;;;;;-141.97;94.06;47857.38;5072578;28;20848;-87
2023/01/31 08:09:02;;;;;;;11.00;5.17;;;;;;;-141.97;94.09;47742.03;5073541;28;20510;-88
2023/01/31 08:11:28;;;;;;;9.23;4.77;;;;;;;-141.97;94.15;47870.81;5068959;28;20456;-87
2023/01/31 08:13:53;;;;;;;11.17;5.63;;;;;;;-141.97;94.26;47849.69;5069401;28;20495;-87
2023/01/31 08:16:20;;;;;;;8.30;4.77;;;;;;;-141.97;94.60;47868.91;5069045;28;20260;-87
2023/01/31 08:18:46;;;;;;;12.23;5.07;;;;;;;-141.97;94.47;47843.91;5075536;28;20187;-88
2023/01/31 08:21:12;;;;;;;12.43;5.80;;;;;;;-141.97;94.71;47915.03;5079836;28;20499;-87
2023/01/31 08:23:39;;;;;;;12.33;5.97;;;;;;;-141.97;94.23;47899.66;5080669;28;20501;-87
2023/01/31 08:26:09;;;;;;;16.53;7.53;;;;;;;-141.97;94.11;47928.50;5077750;28;20173;-88
2023/01/31 08:28:35;;;;;;;17.40;7.73;;;;;;;-141.97;93.68;47872.75;5073838;28;20402;-87
2023/01/31 08:31:01;;;;;;;14.13;6.47;;;;;;;-141.97;94.28;47872.75;5072500;28;20777;-88
2023/01/31 08:33:26;;;;;;;13.73;7.03;;;;;;;-141.97;93.88;47732.44;5072685;28;20251;-87
2023/01/31 08:35:51;;;;;;;14.77;7.90;;;;;;;-141.97;93.48;47795.88;5078207;28;20177;-86
2023/01/31 08:38:17;;;;;;;17.60;8.27;;;;;;;-141.97;93.66;47842.00;5086337;28;20168;-89
2023/01/31 08:40:43;;;;;;;14.07;5.97;;;;;;;-141.97;93.47;47759.34;5080337;28;20224;-89
2023/01/31 08:43:08;;;;;;;14.00;6.53;;;;;;;-141.97;93.26;47865.06;5074787;28;20172;-86
2023/01/31 08:45:35;;;;;;;16.60;7.77;;;;;;;-141.97;93.34;47815.09;5074639;28;20169;-88
2023/01/31 08:48:00;;;;;;;12.77;6.47;;;;;;;-141.97;92.52;47824.69;5074698;28;20720;-87
2023/01/31 08:50:29;;;;;;;17.37;7.73;;;;;;;-141.97;92.89;47859.28;5081994;28;20521;-87
2023/01/31 08:52:56;;;;;;;12.83;6.27;;;;;;;-141.97;91.99;47853.53;5076059;28;20652;-86
2023/01/31 08:55:23;;;;;;;15.33;7.37;;;;;;;-141.97;91.80;47726.66;5079012;28;20410;-86
2023/01/31 08:57:49;;;;;;;14.07;6.60;;;;;;;-141.97;91.66;47761.25;5095607;28;20426;-86
2023/01/31 09:00:16;;;;;;;14.77;7.77;;;;;;;-141.97;91.78;47815.09;5076540;28;20634;-87
2023/01/31 09:02:41;;;;;;;14.13;6.67;;;;;;;-141.97;91.26;47930.41;5075285;28;20454;-88
2023/01/31 09:05:07;;;;;;;12.87;6.20;;;;;;;-141.97;91.19;47697.84;5082619;28;20418;-87
2023/01/31 09:07:33;;;;;;;19.10;8.67;;;;;;;-141.97;91.27;47768.94;5072694;28;20168;-86
2023/01/31 09:09:59;;;;;;;17.13;7.63;;;;;;;-141.97;90.88;47680.53;5071481;28;20414;-87
2023/01/31 09:12:24;;;;;;;10.97;5.77;;;;;;;-141.97;90.16;47740.13;5073745;28;20399;-86
2023/01/31 09:14:51;;;;;;;18.27;9.37;;;;;;;-141.97;88.68;47788.19;5073510;28;20165;-88
2023/01/31 09:17:16;;;;;;;22.77;11.63;;;;;;;-141.97;87.58;47768.94;5071218;28;20187;-85
2023/01/31 09:19:42;;;;;;;25.90;11.23;;;;;;;-141.97;86.48;47872.75;5073169;28;20391;-85
2023/01/31 09:22:08;;;;;;;13.50;5.47;;;;;;;-141.97;86.23;47911.19;5073580;28;20706;-86
2023/01/31 09:24:33;;;;;;;11.27;5.77;;;;;;;-141.97;85.06;47843.91;5072631;28;20172;-86
2023/01/31 09:26:58;;;;;;;16.53;9.27;;;;;;;-141.97;86.10;47951.56;5074221;28;20179;-85
2023/01/31 09:29:24;;;;;;;7.03;4.63;;;;;;;-141.97;84.42;47822.78;5092213;28;20251;-85
2023/01/31 09:31:51;;;;;;;12.43;5.63;;;;;;;-141.97;85.50;47792.03;5092543;28;20191;-84
2023/01/31 09:34:16;;;;;;;11.37;5.73;;;;;;;-141.97;84.72;47778.56;5092480;28;20155;-84
2023/01/31 09:36:42;;;;;;;12.17;5.90;;;;;;;-141.97;86.53;47872.75;5092987;28;20176;-84
2023/01/31 09:39:10;;;;;;;13.87;7.47;;;;;;;-141.97;86.07;47801.63;5091854;28;21019;-86
2023/01/31 09:41:40;;;;;;;12.47;4.80;;;;;;;-141.97;86.34;47830.47;5081936;28;20284;-85
2023/01/31 09:44:24;;;;;;;12.37;5.43;;;;;;;-141.97;85.40;47830.47;5070715;28;20169;-85
2023/01/31 09:47:17;;;;;;;14.07;7.43;;;;;;;-141.97;84.98;47842.00;5072955;28;20161;-85
2023/01/31 09:49:56;;;;;;;18.13;8.93;;;;;;;-141.97;85.93;47840.06;5033063;28;20200;-85
2023/01/31 09:52:22;;;;;;;20.00;10.67;;;;;;;-141.97;83.31;47830.47;5049538;28;20189;-84
2023/01/31 09:54:48;;;;;;;30.90;16.70;;;;;;;-141.97;50.29;47792.03;5049738;28;20192;-86
2023/01/31 09:57:52;;;;;;;18.87;11.00;;;;;;;-141.97;48.73;47817.00;5032826;28;20209;-85
2023/01/31 10:00:32;;;;;;;24.00;9.80;;;;;;;-141.97;48.78;47768.94;5049614;28;20199;-85
2023/01/31 10:03:17;;;;;;;12.07;5.87;;;;;;;-141.97;48.12;47828.53;5050210;28;20251;-84
2023/01/31 10:05:53;;;;;;;19.00;7.40;;;;;;;-141.97;48.00;47897.75;5033128;28;20177;-85
2023/01/31 10:08:38;;;;;;;24.47;11.17;;;;;;;-141.97;47.26;47851.59;5033092;28;20192;-85
2023/01/31 10:11:08;;;;;;;19.97;9.23;;;;;;;-141.97;45.27;47941.94;5049217;28;20170;-85
2023/01/31 10:13:45;;;;;;;9.60;5.30;;;;;;;-141.97;45.88;47842.00;5049373;28;20185;-87
2023/01/31 10:16:27;;;;;;;15.93;7.53;;;;;;;-141.97;46.16;47822.78;5049188;28;20157;-84
2023/01/31 10:18:59;;;;;;;29.50;13.60;;;;;;;-141.97;45.87;47830.47;5049197;28;20316;-84
2023/01/31 10:21:31;;;;;;;19.43;8.93;;;;;;;-141.97;45.74;47828.53;5050943;28;20189;-85
2023/01/31 10:24:08;;;;;;;12.57;6.40;;;;;;;-141.97;46.79;47922.72;5054031;28;20169;-86
2023/01/31 10:26:39;;;;;;;37.33;16.67;;;;;;;-141.97;47.08;47824.69;5059686;28;20645;-83
2023/01/31 10:29:31;;;;;;;17.93;9.03;;;;;;;-141.97;46.18;47818.94;5056090;28;20178;-83
2023/01/31 10:32:04;;;;;;;15.57;8.57;;;;;;;-141.97;45.92;47863.13;5072352;28;20646;-83
2023/01/31 10:34:37;;;;;;;18.27;9.50;;;;;;;-141.97;46.33;47813.16;5071461;28;20165;-82
2023/01/31 10:37:34;;;;;;;23.10;10.37;;;;;;;-141.97;45.81;47799.72;5072765;28;20202;-83
2023/01/31 10:40:14;;;;;;;16.93;9.37;;;;;;;-141.97;46.50;47847.75;4991094;28;20647;-83
2023/01/31 10:42:43;;;;;;;7.33;4.40;;;;;;;-141.97;45.80;47749.72;4989104;28;20217;-83
2023/01/31 10:45:18;;;;;;;9.90;5.80;;;;;;;-141.97;47.14;47809.31;4989353;28;20291;-83
2023/01/31 10:47:52;;;;;;;12.13;7.40;;;;;;;-141.97;47.14;47845.84;4989813;28;20308;-83
2023/01/31 10:50:51;;;;;;;14.33;8.27;;;;;;;-141.97;48.24;47849.69;4989634;28;20175;-83
2023/01/31 10:53:35;;;;;;;7.33;4.80;;;;;;;-141.97;48.32;47828.53;4989569;28;20234;-82
2023/01/31 10:56:00;;;;;;;14.27;8.67;;;;;;;-141.97;49.36;47826.63;4989828;28;20171;-82
2023/01/31 10:58:25;;;;;;;14.43;8.80;;;;;;;-141.97;48.78;47834.31;4988969;28;20210;-82
2023/01/31 11:00:51;;;;;;;17.53;8.77;;;;;;;-141.97;48.28;47905.44;4989472;28;20520;-83
2023/01/31 11:03:17;;;;;;;22.83;11.03;;;;;;;-141.97;47.98;47830.47;4989024;28;20219;-84
2023/01/31 11:05:49;;;;;;;14.37;8.50;;;;;;;-141.97;48.12;47826.63;4989732;28;20676;-84
2023/01/31 11:08:41;;;;;;;12.50;6.73;;;;;;;-141.97;48.38;47820.84;4972876;28;20183;-83
2023/01/31 11:11:10;;;;;;;12.20;6.17;;;;;;;-141.97;48.74;47842.00;4973781;28;20187;-83
2023/01/31 11:13:35;;;;;;;19.63;10.13;;;;;;;-141.97;49.48;47784.34;4989243;28;20545;-85
2023/01/31 11:16:05;;;;;;;22.50;12.67;;;;;;;-141.97;49.54;47784.34;4995682;28;20212;-83
2023/01/31 11:18:35;;;;;;;10.30;5.97;;;;;;;-141.97;48.64;47830.47;5045653;28;20183;-83
2023/01/31 11:21:02;;;;;;;14.77;5.90;;;;;;;-141.97;48.00;47880.44;5073491;28;20160;-83
2023/01/31 11:23:32;;;;;;;9.03;4.43;;;;;;;-141.97;48.72;47815.09;5078075;28;20207;-83
2023/01/31 11:25:58;;;;;;;10.53;5.60;;;;;;;-141.97;49.60;47863.13;5072503;28;20192;-83